Time;durP1;ratioP1;P1;durP2;ratioP2;P2;SDS_P1;SDS_P2;PMS_P1;PMS_P2;Temp;Humidity;BMP_temperature;BMP_pressure;BME280_temperature;BME280_humidity;BME280_pressure;Samples;Min_cycle;Max_cycle;Signal;HPM_P1;HPM_P2
2021/10/27 00:02:24;;;;;;;6.33;5.47;;;11.00;1.00;;;;;;5102038;27;20532;-80
2021/10/27 00:04:51;;;;;;;9.80;6.43;;;11.10;1.00;;;;;;5110166;27;20448;-80
2021/10/27 00:07:18;;;;;;;7.37;5.50;;;11.20;1.00;;;;;;5085893;27;20445;-80
2021/10/27 00:09:45;;;;;;;7.47;6.23;;;11.20;1.00;;;;;;5105708;27;20461;-80
2021/10/27 00:12:11;;;;;;;7.07;5.63;;;11.20;1.00;;;;;;5098688;27;20477;-80
2021/10/27 00:14:38;;;;;;;6.63;5.80;;;11.20;1.00;;;;;;5104481;27;21238;-80
2021/10/27 00:17:06;;;;;;;6.13;5.53;;;11.20;1.00;;;;;;5100269;27;20462;-80
2021/10/27 00:19:33;;;;;;;6.33;5.40;;;11.20;1.00;;;;;;5099188;27;20905;-80
2021/10/27 00:22:00;;;;;;;6.80;5.80;;;11.20;1.00;;;;;;5102307;27;20456;-80
2021/10/27 00:24:26;;;;;;;7.13;5.50;;;11.20;1.00;;;;;;5100824;27;20453;-81
2021/10/27 00:26:53;;;;;;;9.80;6.97;;;11.20;1.00;;;;;;5102407;27;21060;-78
2021/10/27 00:29:20;;;;;;;6.57;5.97;;;11.30;1.00;;;;;;5098687;27;20477;-79
2021/10/27 00:32:00;;;;;;;8.07;5.93;;;11.30;1.00;;;;;;5083783;27;20968;-79
2021/10/27 00:34:28;;;;;;;7.23;5.43;;;11.30;1.00;;;;;;5093420;27;20524;-79
2021/10/27 00:36:55;;;;;;;8.70;5.80;;;11.30;1.00;;;;;;5103705;27;20433;-79
2021/10/27 00:39:22;;;;;;;6.47;5.67;;;11.20;1.00;;;;;;5102553;27;20551;-79
2021/10/27 00:41:49;;;;;;;10.47;7.07;;;11.20;1.00;;;;;;5102723;27;20495;-79
2021/10/27 00:44:20;;;;;;;6.87;6.17;;;11.20;1.00;;;;;;5103475;27;20453;-79
2021/10/27 00:46:47;;;;;;;6.93;6.00;;;11.20;1.00;;;;;;5101277;27;20471;-79
2021/10/27 00:49:14;;;;;;;6.43;5.70;;;11.20;1.00;;;;;;5099454;27;20707;-79
2021/10/27 00:51:42;;;;;;;6.63;5.90;;;11.20;1.00;;;;;;5103474;27;20504;-78
2021/10/27 00:54:09;;;;;;;7.10;5.80;;;11.10;1.00;;;;;;5101742;27;20434;-79
2021/10/27 00:56:36;;;;;;;7.23;6.07;;;11.10;1.00;;;;;;5100098;27;20507;-79
2021/10/27 00:59:05;;;;;;;7.27;6.23;;;11.00;1.00;;;;;;5084693;27;21171;-79
2021/10/27 01:01:32;;;;;;;7.13;6.43;;;11.00;1.00;;;;;;5104261;27;20507;-79
2021/10/27 01:03:59;;;;;;;8.57;7.43;;;11.00;1.00;;;;;;5103673;27;20430;-79
2021/10/27 01:06:26;;;;;;;6.50;5.77;;;11.00;1.00;;;;;;5125508;27;20408;-79
2021/10/27 01:08:54;;;;;;;8.43;6.50;;;11.00;1.00;;;;;;5128478;27;20437;-79
2021/10/27 01:11:20;;;;;;;8.93;6.23;;;11.00;1.00;;;;;;5108263;27;20492;-79
2021/10/27 01:13:48;;;;;;;7.37;6.67;;;11.00;1.00;;;;;;5100469;27;20595;-79
2021/10/27 01:16:15;;;;;;;6.83;6.10;;;11.00;1.00;;;;;;5101369;27;20475;-79
2021/10/27 01:18:41;;;;;;;7.90;5.90;;;11.00;1.00;;;;;;5079424;27;20473;-79
2021/10/27 01:21:09;;;;;;;6.43;5.63;;;11.00;1.00;;;;;;5103254;27;20476;-79
2021/10/27 01:23:36;;;;;;;8.40;6.20;;;11.00;1.00;;;;;;5098370;27;20544;-79
2021/10/27 01:26:05;;;;;;;6.87;5.60;;;11.10;1.00;;;;;;5106895;27;21103;-81
2021/10/27 01:28:31;;;;;;;8.40;6.70;;;11.10;1.00;;;;;;5103394;27;20457;-79
2021/10/27 01:30:58;;;;;;;7.33;6.10;;;11.10;1.00;;;;;;5098273;27;20469;-81
2021/10/27 01:33:25;;;;;;;6.80;6.03;;;11.10;1.00;;;;;;5101157;27;21023;-79
2021/10/27 01:35:52;;;;;;;6.90;6.20;;;11.10;1.00;;;;;;5102628;27;20465;-79
2021/10/27 01:38:20;;;;;;;7.30;6.60;;;11.10;1.00;;;;;;5100435;27;20444;-79
2021/10/27 01:40:47;;;;;;;7.50;6.07;;;11.10;1.00;;;;;;5081435;27;20476;-79
2021/10/27 01:43:13;;;;;;;7.60;5.80;;;11.00;1.00;;;;;;5103698;27;20433;-80
2021/10/27 01:45:40;;;;;;;7.33;6.50;;;11.00;1.00;;;;;;5099934;27;20477;-79
2021/10/27 01:48:08;;;;;;;9.10;6.87;;;11.00;1.00;;;;;;5105398;27;20475;-80
2021/10/27 01:50:35;;;;;;;7.57;6.77;;;11.00;1.00;;;;;;5083681;27;20457;-80
2021/10/27 01:53:01;;;;;;;7.90;7.10;;;11.00;1.00;;;;;;5099667;27;20453;-79
2021/10/27 01:55:30;;;;;;;7.07;6.00;;;11.00;1.00;;;;;;5084114;27;20460;-79
2021/10/27 01:57:56;;;;;;;7.20;6.50;;;11.00;1.00;;;;;;5100009;27;21183;-79
2021/10/27 02:00:23;;;;;;;7.60;6.70;;;11.00;1.00;;;;;;5101407;27;20521;-80
2021/10/27 02:02:50;;;;;;;6.87;6.10;;;11.00;1.00;;;;;;5098570;27;20446;-79
2021/10/27 02:05:16;;;;;;;6.93;6.30;;;11.00;1.00;;;;;;5101523;27;20401;-79
2021/10/27 02:07:43;;;;;;;7.40;6.70;;;11.00;1.00;;;;;;5100670;27;20456;-79
2021/10/27 02:10:11;;;;;;;7.90;7.10;;;11.00;1.00;;;;;;5098982;27;20652;-79
2021/10/27 02:12:41;;;;;;;8.57;6.40;;;11.10;1.00;;;;;;5103873;27;20989;-79
2021/10/27 02:15:10;;;;;;;7.70;6.57;;;11.10;1.00;;;;;;5100852;27;20495;-79
2021/10/27 02:17:37;;;;;;;8.83;7.77;;;11.10;1.00;;;;;;5100669;27;20863;-79
2021/10/27 02:20:06;;;;;;;8.03;7.23;;;11.10;1.00;;;;;;5099664;27;20481;-79
2021/10/27 02:22:33;;;;;;;10.33;6.80;;;11.10;1.00;;;;;;5118059;27;20473;-79
2021/10/27 02:25:00;;;;;;;8.43;6.80;;;11.10;1.00;;;;;;5128444;27;20410;-80
2021/10/27 02:27:27;;;;;;;7.43;6.60;;;11.10;1.00;;;;;;5105704;27;20468;-79
2021/10/27 02:29:55;;;;;;;7.03;6.33;;;11.10;1.00;;;;;;5100897;27;22497;-80
2021/10/27 02:32:21;;;;;;;7.63;6.83;;;11.10;1.00;;;;;;5104424;27;20521;-79
2021/10/27 02:34:48;;;;;;;7.63;6.70;;;11.20;1.00;;;;;;5078570;27;20446;-79
2021/10/27 02:37:15;;;;;;;7.90;7.20;;;11.20;1.00;;;;;;5104812;27;20464;-79
2021/10/27 02:39:41;;;;;;;8.47;7.60;;;11.20;1.00;;;;;;5102741;27;20918;-79
2021/10/27 02:42:08;;;;;;;8.07;7.03;;;11.20;1.00;;;;;;5097704;27;21202;-79
2021/10/27 02:44:36;;;;;;;11.80;6.93;;;11.30;1.00;;;;;;5099361;27;20468;-78
2021/10/27 02:47:04;;;;;;;8.23;7.43;;;11.30;1.00;;;;;;5100795;27;20450;-79
2021/10/27 02:49:31;;;;;;;9.33;6.97;;;11.30;1.00;;;;;;5082007;27;20457;-79
2021/10/27 02:51:57;;;;;;;7.83;7.03;;;11.30;1.00;;;;;;5102878;27;20461;-79
2021/10/27 02:54:24;;;;;;;7.50;6.47;;;11.30;1.00;;;;;;5107480;27;20461;-79
2021/10/27 02:56:50;;;;;;;9.67;7.53;;;11.30;1.00;;;;;;5087603;27;20460;-79
2021/10/27 02:59:17;;;;;;;7.27;6.13;;;11.30;1.00;;;;;;5104056;27;20464;-79
2021/10/27 03:01:44;;;;;;;7.60;6.90;;;11.20;1.00;;;;;;5106282;27;20474;-79
2021/10/27 03:04:12;;;;;;;10.80;7.00;;;11.20;1.00;;;;;;5110056;27;21315;-79
2021/10/27 03:06:39;;;;;;;7.03;6.07;;;11.30;1.00;;;;;;5103699;27;23815;-79
2021/10/27 03:09:06;;;;;;;7.30;6.60;;;11.30;1.00;;;;;;5101644;27;20457;-79
2021/10/27 03:11:33;;;;;;;6.93;6.23;;;11.30;1.00;;;;;;5105900;27;20426;-79
2021/10/27 03:14:00;;;;;;;7.90;6.53;;;11.30;1.00;;;;;;5107420;27;20512;-80
2021/10/27 03:16:26;;;;;;;8.00;6.50;;;11.30;1.00;;;;;;5106227;27;20455;-80
2021/10/27 03:18:53;;;;;;;9.70;6.80;;;11.30;1.00;;;;;;5109344;27;20465;-78
2021/10/27 03:21:21;;;;;;;9.33;7.30;;;11.30;1.00;;;;;;5123759;27;20409;-79
2021/10/27 03:23:47;;;;;;;7.40;6.70;;;11.20;1.00;;;;;;5119438;27;20449;-80
2021/10/27 03:26:14;;;;;;;8.37;7.57;;;11.30;1.00;;;;;;5111894;27;20521;-79
2021/10/27 03:28:41;;;;;;;8.23;7.53;;;11.30;1.00;;;;;;5107796;27;20455;-80
2021/10/27 03:31:07;;;;;;;8.17;6.53;;;11.20;1.00;;;;;;5083226;27;20474;-80
2021/10/27 03:33:35;;;;;;;9.73;7.20;;;11.20;1.00;;;;;;5105898;27;21306;-80
2021/10/27 03:36:02;;;;;;;9.27;7.37;;;11.20;1.00;;;;;;5101508;27;20519;-80
2021/10/27 03:38:31;;;;;;;8.17;7.13;;;11.20;1.00;;;;;;5102723;27;20461;-80
2021/10/27 03:40:57;;;;;;;7.73;6.70;;;11.10;1.00;;;;;;5104565;27;20441;-79
2021/10/27 03:43:24;;;;;;;9.00;7.10;;;11.20;1.00;;;;;;5102495;27;21700;-79
2021/10/27 03:45:50;;;;;;;8.43;7.37;;;11.20;1.00;;;;;;5105026;27;20404;-79
2021/10/27 03:48:17;;;;;;;8.67;7.30;;;11.20;1.00;;;;;;5107139;27;20446;-79
2021/10/27 03:50:44;;;;;;;10.17;7.63;;;11.20;1.00;;;;;;5104226;27;20461;-79
2021/10/27 03:53:10;;;;;;;12.47;7.40;;;11.20;1.00;;;;;;5112983;27;20467;-79
2021/10/27 03:55:39;;;;;;;8.53;6.67;;;11.20;1.00;;;;;;5105715;27;20462;-79
2021/10/27 03:58:05;;;;;;;9.83;7.70;;;11.20;1.00;;;;;;5108583;27;20472;-79
2021/10/27 04:00:32;;;;;;;7.90;7.10;;;11.10;1.00;;;;;;5102791;27;20473;-79
2021/10/27 04:02:58;;;;;;;10.10;7.87;;;11.00;1.00;;;;;;5107334;27;21385;-79
2021/10/27 04:05:25;;;;;;;8.83;7.60;;;11.00;1.00;;;;;;5106685;27;20425;-80
2021/10/27 04:07:52;;;;;;;9.90;7.70;;;11.00;1.00;;;;;;5110081;27;21796;-79
2021/10/27 04:10:19;;;;;;;9.23;7.43;;;10.90;1.00;;;;;;5108815;27;20554;-80
2021/10/27 04:12:47;;;;;;;9.90;8.67;;;10.90;1.00;;;;;;5104753;27;20467;-79
2021/10/27 04:15:14;;;;;;;9.97;8.93;;;11.00;1.00;;;;;;5115250;27;20787;-81
2021/10/27 04:17:41;;;;;;;9.33;8.43;;;11.00;1.00;;;;;;5133421;27;21184;-81
2021/10/27 04:20:09;;;;;;;9.23;7.63;;;11.10;1.00;;;;;;5111615;27;20440;-81
2021/10/27 04:22:38;;;;;;;8.97;8.10;;;11.10;1.00;;;;;;5105640;27;20449;-79
2021/10/27 04:25:06;;;;;;;8.17;7.37;;;11.10;1.00;;;;;;5098220;27;20465;-79
2021/10/27 04:27:33;;;;;;;9.97;8.97;;;11.10;1.00;;;;;;5081889;27;20495;-78
2021/10/27 04:30:01;;;;;;;8.47;7.60;;;11.10;1.00;;;;;;5104707;27;20491;-77
2021/10/27 04:32:27;;;;;;;10.67;8.50;;;11.10;1.00;;;;;;5101105;27;20684;-77
2021/10/27 04:34:54;;;;;;;8.70;7.10;;;11.10;1.00;;;;;;5097205;27;20449;-78
2021/10/27 04:37:21;;;;;;;10.47;8.13;;;11.10;1.00;;;;;;5096398;27;20457;-78
2021/10/27 04:39:48;;;;;;;10.37;9.27;;;11.10;1.00;;;;;;5099288;27;20465;-79
2021/10/27 04:42:14;;;;;;;9.73;8.73;;;11.10;1.00;;;;;;5102007;27;20545;-79
2021/10/27 04:44:41;;;;;;;10.17;8.60;;;11.10;1.00;;;;;;5099076;27;20448;-80
2021/10/27 04:47:09;;;;;;;16.47;14.70;;;11.20;1.00;;;;;;5090365;27;21021;-83
2021/10/27 04:49:36;;;;;;;9.43;8.43;;;11.20;1.00;;;;;;5104190;27;20448;-84
2021/10/27 04:52:06;;;;;;;9.47;8.47;;;11.10;1.00;;;;;;5087715;27;20472;-82
2021/10/27 04:54:37;;;;;;;9.70;7.90;;;11.10;1.00;;;;;;5108267;27;20429;-82
2021/10/27 04:57:06;;;;;;;9.67;8.77;;;11.20;1.00;;;;;;5104999;27;22979;-81
2021/10/27 04:59:39;;;;;;;9.20;8.30;;;11.20;1.00;;;;;;5104827;27;20990;-85
2021/10/27 05:02:06;;;;;;;9.10;7.53;;;11.20;1.00;;;;;;5102579;27;20458;-83
2021/10/27 05:17:58;;;;;;;8.77;7.63;;;11.10;1.00;;;;;;5094407;27;20461;-77
2021/10/27 05:20:30;;;;;;;10.10;8.40;;;11.20;1.00;;;;;;5112174;27;20449;-79
2021/10/27 05:22:57;;;;;;;10.07;8.10;;;11.20;1.00;;;;;;5091896;27;20541;-79
2021/10/27 05:25:24;;;;;;;8.97;7.30;;;11.20;1.00;;;;;;5088531;27;21256;-78
2021/10/27 05:27:52;;;;;;;8.40;7.30;;;11.30;1.00;;;;;;5087663;27;20700;-77
2021/10/27 05:30:19;;;;;;;9.00;7.17;;;11.30;1.00;;;;;;5094378;27;20480;-79
2021/10/27 05:32:47;;;;;;;7.67;6.97;;;11.30;1.00;;;;;;5094633;27;20445;-79
2021/10/27 05:35:13;;;;;;;7.70;6.90;;;11.30;1.00;;;;;;5101430;27;20484;-79
2021/10/27 05:37:41;;;;;;;8.07;7.33;;;11.30;1.00;;;;;;5089950;27;20420;-78
2021/10/27 05:40:10;;;;;;;12.07;8.60;;;11.30;1.00;;;;;;5111107;27;20464;-79
2021/10/27 05:42:39;;;;;;;9.40;7.33;;;11.40;1.00;;;;;;5110536;27;20454;-80
2021/10/27 05:45:09;;;;;;;8.63;6.80;;;11.40;1.00;;;;;;5118502;27;20464;-79
2021/10/27 05:47:44;;;;;;;9.60;8.27;;;11.50;1.00;;;;;;5115759;27;21425;-79
2021/10/27 05:50:26;;;;;;;8.23;7.40;;;11.50;1.00;;;;;;5093430;27;20541;-79
2021/10/27 05:55:37;;;;;;;8.37;7.37;;;11.50;1.00;;;;;;5108245;27;21657;-80
2021/10/27 05:58:06;;;;;;;11.87;7.20;;;11.60;1.00;;;;;;5101006;27;20445;-79
2021/10/27 06:00:35;;;;;;;9.00;8.03;;;11.60;1.00;;;;;;5111396;27;20425;-79
2021/10/27 06:03:02;;;;;;;6.97;6.27;;;11.60;1.00;;;;;;5104679;27;20441;-79
2021/10/27 06:05:29;;;;;;;8.00;6.03;;;11.60;1.00;;;;;;5088784;27;20510;-78
2021/10/27 06:07:55;;;;;;;7.37;6.07;;;11.60;1.00;;;;;;5103656;27;20449;-78
2021/10/27 06:10:24;;;;;;;9.17;6.70;;;11.60;1.00;;;;;;5102076;27;20453;-79
2021/10/27 06:12:55;;;;;;;8.53;7.57;;;11.60;1.00;;;;;;5117203;27;20418;-79
2021/10/27 06:15:22;;;;;;;7.30;6.67;;;11.60;1.00;;;;;;5127981;27;20437;-79
2021/10/27 06:17:51;;;;;;;9.27;6.70;;;11.70;1.00;;;;;;5119067;27;20417;-79
2021/10/27 06:20:18;;;;;;;7.37;6.67;;;11.70;1.00;;;;;;5108255;27;20472;-79
2021/10/27 06:22:45;;;;;;;9.43;6.00;;;11.70;1.00;;;;;;5106720;27;20567;-80
2021/10/27 06:25:12;;;;;;;8.03;6.50;;;11.70;1.00;;;;;;5107036;27;20488;-78
2021/10/27 06:27:42;;;;;;;7.90;6.50;;;11.80;1.00;;;;;;5106279;27;20409;-78
2021/10/27 06:30:10;;;;;;;10.50;6.40;;;11.80;1.00;;;;;;5101141;27;20457;-78
2021/10/27 06:32:42;;;;;;;7.60;5.87;;;11.80;1.00;;;;;;5101762;27;20449;-79
2021/10/27 06:35:13;;;;;;;8.17;5.70;;;11.80;1.00;;;;;;5104264;27;20445;-78
2021/10/27 06:37:55;;;;;;;8.50;6.43;;;11.80;1.00;;;;;;5103648;27;20961;-78
2021/10/27 06:48:38;;;;;;;7.20;5.57;;;11.90;1.00;;;;;;5095380;27;20466;-78
2021/10/27 06:51:06;;;;;;;10.03;5.93;;;12.00;1.00;;;;;;5109489;27;20470;-78
2021/10/27 06:53:32;;;;;;;7.50;6.37;;;12.00;1.00;;;;;;5106201;27;20463;-78
2021/10/27 06:56:00;;;;;;;7.37;5.80;;;12.00;1.00;;;;;;5111537;27;20432;-78
2021/10/27 06:58:27;;;;;;;7.80;5.63;;;12.10;1.00;;;;;;5108167;27;20480;-78
2021/10/27 07:00:56;;;;;;;6.40;5.70;;;12.00;1.00;;;;;;5089105;27;20470;-78
2021/10/27 07:06:37;;;;;;;7.90;5.93;;;12.10;1.00;;;;;;5108958;27;20449;-78
2021/10/27 07:17:17;;;;;;;10.20;5.93;;;12.10;1.00;;;;;;5130081;27;20472;-78
2021/10/27 07:19:44;;;;;;;7.10;5.40;;;12.20;1.00;;;;;;5110748;27;20573;-78
2021/10/27 07:22:13;;;;;;;8.70;4.70;;;12.20;1.00;;;;;;5120808;27;20472;-79
2021/10/27 07:24:40;;;;;;;9.60;5.40;;;12.20;1.00;;;;;;5104992;27;20472;-78
2021/10/27 07:27:07;;;;;;;6.80;5.00;;;12.30;1.00;;;;;;5108756;27;20468;-78
2021/10/27 07:29:34;;;;;;;7.23;5.20;;;12.30;1.00;;;;;;5111419;27;20452;-78
2021/10/27 07:32:02;;;;;;;7.50;5.50;;;12.40;1.00;;;;;;5105641;27;24239;-78
2021/10/27 07:34:32;;;;;;;7.07;6.07;;;12.30;1.00;;;;;;5104137;27;20449;-78
2021/10/27 07:40:05;;;;;;;7.50;5.53;;;12.40;1.00;;;;;;5131183;27;20495;-79
2021/10/27 07:42:32;;;;;;;9.37;5.93;;;12.40;1.00;;;;;;5104871;27;20669;-77
2021/10/27 07:44:58;;;;;;;6.97;4.93;;;12.50;1.00;;;;;;5104307;27;20774;-78
2021/10/27 07:47:25;;;;;;;6.27;5.67;;;12.50;1.00;;;;;;5105882;27;20454;-78
2021/10/27 07:49:52;;;;;;;6.37;5.20;;;12.60;1.00;;;;;;5100123;27;21713;-78
2021/10/27 07:52:18;;;;;;;5.47;4.90;;;12.70;1.00;;;;;;5107868;27;20471;-78
2021/10/27 07:54:46;;;;;;;6.73;5.80;;;12.80;1.00;;;;;;5104132;27;20454;-78
2021/10/27 07:57:14;;;;;;;6.57;5.13;;;12.80;1.00;;;;;;5085359;27;20550;-79
2021/10/27 07:59:40;;;;;;;7.83;5.93;;;12.80;1.00;;;;;;5082780;27;21349;-79
2021/10/27 08:02:07;;;;;;;6.37;4.83;;;12.80;1.00;;;;;;5104585;27;20469;-78
2021/10/27 08:04:34;;;;;;;5.57;4.97;;;12.90;1.00;;;;;;5104270;27;20445;-79
2021/10/27 08:07:01;;;;;;;6.30;5.70;;;12.90;1.00;;;;;;5108157;27;20549;-77
2021/10/27 08:09:28;;;;;;;9.40;6.53;;;12.90;1.00;;;;;;5102784;27;20448;-78
2021/10/27 08:11:56;;;;;;;8.50;4.93;;;12.80;1.00;;;;;;5103899;27;20482;-78
2021/10/27 08:14:22;;;;;;;9.27;5.50;;;12.90;1.00;;;;;;5085868;27;20909;-77
2021/10/27 08:16:49;;;;;;;6.43;4.87;;;13.00;1.00;;;;;;5105538;27;20441;-78
2021/10/27 08:19:16;;;;;;;6.60;4.70;;;13.00;1.00;;;;;;5109944;27;21126;-78
2021/10/27 08:21:43;;;;;;;6.30;4.27;;;13.00;1.00;;;;;;5120864;27;20433;-79
2021/10/27 08:24:12;;;;;;;5.77;4.50;;;13.10;1.00;;;;;;5117601;27;20440;-79
2021/10/27 08:26:46;;;;;;;5.83;4.57;;;13.10;1.00;;;;;;5109328;27;20455;-78
2021/10/27 08:29:15;;;;;;;5.23;4.33;;;13.20;1.00;;;;;;5107948;27;21278;-78
2021/10/27 08:31:43;;;;;;;5.77;4.27;;;13.20;1.00;;;;;;5103571;27;20446;-78
2021/10/27 08:34:15;;;;;;;4.33;3.93;;;13.30;1.00;;;;;;5107739;27;20441;-79
2021/10/27 08:36:42;;;;;;;6.37;4.57;;;13.30;1.00;;;;;;5087205;27;20472;-79
2021/10/27 08:39:11;;;;;;;6.47;4.90;;;13.40;1.00;;;;;;5089375;27;20967;-79
2021/10/27 08:41:39;;;;;;;6.73;4.37;;;13.40;1.00;;;;;;5107661;27;20425;-78
2021/10/27 08:44:06;;;;;;;8.37;4.97;;;13.40;1.00;;;;;;5103897;27;21106;-78
2021/10/27 08:46:35;;;;;;;5.73;4.47;;;13.60;1.00;;;;;;5104290;27;20457;-79
2021/10/27 08:49:05;;;;;;;6.73;4.60;;;13.70;1.00;;;;;;5108089;27;20453;-78
2021/10/27 08:51:33;;;;;;;5.10;4.63;;;14.00;1.00;;;;;;5109900;27;20464;-78
2021/10/27 08:54:00;;;;;;;6.90;4.60;;;14.30;1.00;;;;;;5110114;27;20445;-79
2021/10/27 08:56:27;;;;;;;7.30;5.40;;;14.40;1.00;;;;;;5106913;27;20450;-78
2021/10/27 08:58:59;;;;;;;7.23;4.87;;;14.60;1.00;;;;;;5087969;27;21295;-79
2021/10/27 09:01:35;;;;;;;5.23;4.47;;;14.70;1.00;;;;;;5102587;27;20458;-79
2021/10/27 09:04:21;;;;;;;7.30;4.67;;;14.80;1.00;;;;;;5107747;27;21126;-79
2021/10/27 09:07:08;;;;;;;7.43;5.10;;;14.90;1.00;;;;;;5083835;27;20446;-78
2021/10/27 09:09:51;;;;;;;5.90;4.60;;;15.10;1.00;;;;;;5107045;27;21173;-78
2021/10/27 09:15:42;;;;;;;5.87;4.50;;;15.40;1.00;;;;;;5091782;27;20417;-79
2021/10/27 09:35:53;;;;;;;6.17;4.33;;;15.70;1.00;;;;;;5108264;27;20451;-78
2021/10/27 09:41:42;;;;;;;7.27;4.30;;;15.50;1.00;;;;;;5084366;27;20469;-79
2021/10/27 09:44:32;;;;;;;7.53;4.27;;;15.40;1.00;;;;;;5101867;27;21014;-79
2021/10/27 09:47:27;;;;;;;5.30;4.13;;;15.40;1.00;;;;;;5107634;27;21238;-79
2021/10/27 09:55:58;;;;;;;6.40;5.00;;;16.60;1.00;;;;;;5041588;28;20460;-79
2021/10/27 10:04:08;;;;;;;4.93;4.17;;;16.40;1.00;;;;;;5105303;27;20467;-79
2021/10/27 10:06:40;;;;;;;5.20;4.07;;;16.20;1.00;;;;;;5104083;27;20467;-79
2021/10/27 10:09:08;;;;;;;5.00;4.10;;;16.00;1.00;;;;;;5106912;27;20474;-79
2021/10/27 10:11:37;;;;;;;6.83;6.00;;;16.10;1.00;;;;;;5102281;27;20558;-79
2021/10/27 10:14:06;;;;;;;6.30;4.00;;;16.10;1.00;;;;;;5108469;27;20511;-79
2021/10/27 10:16:37;;;;;;;5.97;3.90;;;16.10;1.00;;;;;;5111862;27;21157;-80
2021/10/27 10:19:07;;;;;;;4.83;3.47;;;16.00;1.00;;;;;;5135624;27;20461;-79
2021/10/27 10:21:36;;;;;;;6.83;3.93;;;16.00;1.00;;;;;;5120060;27;20511;-79
2021/10/27 10:24:37;;;;;;;7.87;3.70;;;16.00;1.00;;;;;;5110433;27;20482;-79
2021/10/27 10:27:11;;;;;;;6.77;4.00;;;16.00;1.00;;;;;;5060576;27;21511;-78
2021/10/27 10:29:59;;;;;;;7.50;4.60;;;16.00;1.00;;;;;;5109433;27;20448;-80
2021/10/27 10:32:40;;;;;;;6.90;3.87;;;16.00;1.00;;;;;;5104379;27;20457;-78
2021/10/27 10:35:12;;;;;;;4.83;3.70;;;16.00;1.00;;;;;;5106829;27;20446;-78
2021/10/27 10:37:46;;;;;;;4.27;3.80;;;15.90;1.00;;;;;;5105005;27;20515;-78
2021/10/27 10:40:50;;;;;;;6.23;3.90;;;15.90;1.00;;;;;;5086483;27;20487;-79
2021/10/27 10:57:00;;;;;;;5.27;3.80;;;15.90;1.00;;;;;;5130704;27;2014782;-78
2021/10/27 11:15:12;;;;;;;7.00;4.53;;;15.30;1.00;;;;;;5189531;27;20450;-79
2021/10/27 11:26:07;;;;;;;4.50;3.57;;;15.50;1.00;;;;;;5191473;27;20583;-79
2021/10/27 11:37:36;;;;;;;4.87;3.30;;;15.50;1.00;;;;;;5186805;27;20430;-78
2021/10/27 11:40:08;;;;;;;5.27;3.70;;;15.60;1.00;;;;;;5168190;27;20510;-78
2021/10/27 11:42:43;;;;;;;3.93;3.47;;;15.70;1.00;;;;;;5186548;27;20483;-79
2021/10/27 11:45:25;;;;;;;7.70;3.90;;;15.60;1.00;;;;;;5187592;27;20462;-78
2021/10/27 11:47:55;;;;;;;6.13;4.10;;;15.60;1.00;;;;;;5192056;27;21354;-79
2021/10/27 11:50:30;;;;;;;6.30;4.10;;;15.50;1.00;;;;;;5186981;27;20952;-79
2021/10/27 11:52:57;;;;;;;6.07;4.03;;;15.50;1.00;;;;;;5186439;27;20461;-78
2021/10/27 11:55:30;;;;;;;4.50;3.73;;;15.50;1.00;;;;;;5180301;27;20557;-78
2021/10/27 11:57:57;;;;;;;8.40;3.90;;;15.50;1.00;;;;;;5170131;27;21458;-79
2021/10/27 12:00:32;;;;;;;5.33;3.80;;;15.40;1.00;;;;;;5170373;27;21075;-79
2021/10/27 12:03:04;;;;;;;5.40;4.17;;;15.40;1.00;;;;;;5169901;27;20446;-79
2021/10/27 12:05:38;;;;;;;5.17;3.63;;;15.40;1.00;;;;;;5171498;27;22501;-79
2021/10/27 12:11:08;;;;;;;5.30;3.80;;;15.30;1.00;;;;;;5157414;27;20470;-79
2021/10/27 12:13:46;;;;;;;7.00;4.40;;;15.30;1.00;;;;;;5170915;27;21433;-80
2021/10/27 12:19:02;;;;;;;5.23;3.80;;;15.20;1.00;;;;;;5181002;27;20646;-80
2021/10/27 12:21:29;;;;;;;4.00;3.60;;;15.20;1.00;;;;;;5178783;27;20428;-80
2021/10/27 12:23:58;;;;;;;7.20;4.20;;;15.20;1.00;;;;;;5172302;27;20625;-79
2021/10/27 12:26:26;;;;;;;7.13;4.87;;;15.10;1.00;;;;;;5171189;27;20563;-79
2021/10/27 12:29:10;;;;;;;4.80;4.30;;;15.10;1.00;;;;;;5174213;27;20447;-79
2021/10/27 12:31:39;;;;;;;6.03;4.60;;;15.10;1.00;;;;;;5156996;27;20463;-79
2021/10/27 12:34:26;;;;;;;4.40;4.00;;;15.20;1.00;;;;;;5176869;27;20411;-78
2021/10/27 12:36:56;;;;;;;6.90;4.30;;;15.20;1.00;;;;;;5177908;27;20412;-79
2021/10/27 12:39:25;;;;;;;5.87;3.70;;;15.20;1.00;;;;;;5166604;27;20439;-79
2021/10/27 12:42:04;;;;;;;4.20;3.70;;;15.20;1.00;;;;;;5171514;27;20460;-79
2021/10/27 12:44:31;;;;;;;7.60;5.10;;;15.20;1.00;;;;;;5168364;27;20542;-80
2021/10/27 12:47:10;;;;;;;4.57;4.07;;;15.30;1.00;;;;;;5170375;27;20443;-79
2021/10/27 12:49:37;;;;;;;9.40;5.07;;;15.30;1.00;;;;;;5169792;27;21090;-78
2021/10/27 12:52:27;;;;;;;7.30;3.73;;;15.30;1.00;;;;;;5170073;27;22195;-80
2021/10/27 12:55:12;;;;;;;4.60;3.70;;;15.30;1.00;;;;;;5172791;27;20471;-80
2021/10/27 12:57:44;;;;;;;5.30;4.67;;;15.30;1.00;;;;;;5179913;27;20444;-80
2021/10/27 13:00:16;;;;;;;6.43;4.27;;;15.20;1.00;;;;;;5174011;27;20513;-79
2021/10/27 13:02:53;;;;;;;7.00;3.90;;;15.20;1.00;;;;;;5172067;27;20439;-79
2021/10/27 13:05:26;;;;;;;6.73;3.63;;;15.20;1.00;;;;;;5172883;27;20481;-78
2021/10/27 13:07:59;;;;;;;5.43;3.50;;;15.10;1.00;;;;;;5171604;27;20573;-78
2021/10/27 13:10:43;;;;;;;4.67;3.53;;;15.10;1.00;;;;;;5175112;27;20415;-79
2021/10/27 13:13:22;;;;;;;6.90;3.90;;;15.00;1.00;;;;;;5175206;27;20432;-79
2021/10/27 13:16:11;;;;;;;4.63;3.77;;;14.90;1.00;;;;;;5180423;27;20450;-79
2021/10/27 13:18:52;;;;;;;6.10;4.70;;;15.00;1.00;;;;;;5183209;27;20450;-79
2021/10/27 13:21:43;;;;;;;5.30;3.47;;;15.00;1.00;;;;;;5170416;27;20447;-78
2021/10/27 13:29:43;;;;;;;4.97;3.67;;;15.00;1.00;;;;;;5170706;27;21493;-78
2021/10/27 13:32:14;;;;;;;6.17;3.80;;;15.10;1.00;;;;;;5170608;27;21246;-79
2021/10/27 13:34:42;;;;;;;9.30;4.30;;;15.10;1.00;;;;;;5172784;27;21232;-79
2021/10/27 13:37:09;;;;;;;4.87;3.83;;;15.10;1.00;;;;;;5170170;27;20542;-79
2021/10/27 13:39:38;;;;;;;4.90;3.60;;;15.10;1.00;;;;;;5172316;27;20432;-80
2021/10/27 13:42:10;;;;;;;4.97;3.83;;;15.10;1.00;;;;;;5170847;27;20451;-78
2021/10/27 13:44:50;;;;;;;7.23;4.40;;;15.10;1.00;;;;;;5167918;27;20408;-78
2021/10/27 13:47:24;;;;;;;4.67;4.03;;;15.10;1.00;;;;;;5168361;27;20444;-79
2021/10/27 14:06:36;;;;;;;4.70;3.90;;;15.00;1.00;;;;;;5141588;27;20463;-78
2021/10/27 14:09:09;;;;;;;5.30;3.77;;;15.00;1.00;;;;;;5177458;27;20451;-78
2021/10/27 14:11:42;;;;;;;5.00;3.47;;;15.10;1.00;;;;;;5176388;27;20450;-80
2021/10/27 14:14:15;;;;;;;5.20;4.63;;;15.00;1.00;;;;;;5182853;27;20434;-80
2021/10/27 14:19:54;;;;;;;6.43;4.90;;;15.10;1.00;;;;;;5193246;27;20553;-79
2021/10/27 14:40:07;;;;;;;6.07;5.00;;;14.70;1.00;;;;;;5177399;27;21217;-79
2021/10/27 15:40:31;;;;;;;6.90;6.10;;;14.70;1.00;;;;;;5153559;27;20557;-79
2021/10/27 15:51:50;;;;;;;5.93;5.33;;;14.50;1.00;;;;;;5160266;27;20431;-79
2021/10/27 15:54:29;;;;;;;7.97;6.13;;;14.50;1.00;;;;;;5155385;27;20446;-79
2021/10/27 15:56:59;;;;;;;8.00;6.00;;;14.50;1.00;;;;;;5161063;27;20448;-79
2021/10/27 16:02:42;;;;;;;6.10;5.50;;;14.60;1.00;;;;;;5146899;27;20451;-78
2021/10/27 16:05:27;;;;;;;7.73;6.83;;;14.50;1.00;;;;;;5157689;27;20470;-79
2021/10/27 16:14:21;;;;;;;7.80;6.73;;;14.30;1.00;;;;;;5078376;27;20489;-79
2021/10/27 16:16:59;;;;;;;9.07;6.53;;;14.30;1.00;;;;;;5155070;27;21213;-79
2021/10/27 16:19:29;;;;;;;8.87;7.17;;;14.30;1.00;;;;;;5139487;27;21486;-78
2021/10/27 16:21:59;;;;;;;6.40;5.80;;;14.30;1.00;;;;;;5160015;27;20440;-79
2021/10/27 16:24:29;;;;;;;7.53;6.73;;;14.30;1.00;;;;;;5156137;27;20443;-79
2021/10/27 16:27:19;;;;;;;6.93;6.23;;;14.30;1.00;;;;;;5142037;27;20566;-79
2021/10/27 16:29:46;;;;;;;7.57;6.17;;;14.20;1.00;;;;;;5153528;27;20479;-79
2021/10/27 16:32:14;;;;;;;8.67;6.70;;;14.30;1.00;;;;;;5129550;27;20462;-78
2021/10/27 16:34:43;;;;;;;7.97;6.27;;;14.30;1.00;;;;;;5139101;27;20435;-78
2021/10/27 16:37:10;;;;;;;8.60;6.07;;;14.40;1.00;;;;;;5136965;27;20452;-78
2021/10/27 16:39:37;;;;;;;6.53;5.87;;;14.40;1.00;;;;;;5142255;27;20455;-78
2021/10/27 16:42:04;;;;;;;9.20;6.60;;;14.40;1.00;;;;;;5143802;27;20460;-79
2021/10/27 16:44:32;;;;;;;6.40;5.70;;;14.40;1.00;;;;;;5144868;27;20444;-79
2021/10/27 16:46:59;;;;;;;10.40;6.67;;;14.40;1.00;;;;;;5142673;27;20548;-78
2021/10/27 16:49:26;;;;;;;7.80;5.80;;;14.40;1.00;;;;;;5145947;27;20513;-79
2021/10/27 16:51:52;;;;;;;6.80;6.10;;;14.40;1.00;;;;;;5161749;27;20487;-78
2021/10/27 16:54:19;;;;;;;7.17;6.07;;;14.40;1.00;;;;;;5148537;27;20440;-78
2021/10/27 16:56:47;;;;;;;8.00;6.40;;;14.40;1.00;;;;;;5146086;27;20448;-78
2021/10/27 16:59:13;;;;;;;7.23;6.53;;;14.40;1.00;;;;;;5140954;27;20520;-77
2021/10/27 17:01:45;;;;;;;9.13;6.90;;;14.50;1.00;;;;;;5140666;27;20575;-78
2021/10/27 17:04:12;;;;;;;7.40;6.07;;;14.50;1.00;;;;;;5142491;27;20468;-77
2021/10/27 17:06:39;;;;;;;8.33;6.80;;;14.40;1.00;;;;;;5142547;27;20443;-79
2021/10/27 17:09:05;;;;;;;7.03;6.33;;;14.50;1.00;;;;;;5135228;27;20453;-77
2021/10/27 17:11:33;;;;;;;8.87;5.70;;;14.50;1.00;;;;;;5122823;27;20517;-78
2021/10/27 17:13:59;;;;;;;7.40;6.37;;;14.50;1.00;;;;;;5138651;27;20546;-78
2021/10/27 17:16:28;;;;;;;6.37;5.60;;;14.50;1.00;;;;;;5142328;27;20862;-79